Time;durP1;ratioP1;P1;durP2;ratioP2;P2;SDS_P1;SDS_P2;PMS_P1;PMS_P2;Temp;Humidity;BMP_temperature;BMP_pressure;BME280_temperature;BME280_humidity;BME280_pressure;Samples;Min_cycle;Max_cycle;Signal;HPM_P1;HPM_P2
2022/08/22 00:00:13;;;;;;;4.20;3.22;;;15.90;99.90;;;;;;5219959;28;20028;-62
2022/08/22 00:03:06;;;;;;;5.10;3.80;;;15.90;99.90;;;;;;5225172;28;20027;-65
2022/08/22 00:06:05;;;;;;;5.97;4.15;;;15.90;99.90;;;;;;5217151;28;20195;-64
2022/08/22 00:08:48;;;;;;;7.47;3.75;;;15.90;99.90;;;;;;5216025;28;20027;-64
2022/08/22 00:11:41;;;;;;;4.97;3.50;;;15.90;99.90;;;;;;5216414;28;20028;-64
2022/08/22 00:14:37;;;;;;;4.97;4.10;;;15.80;99.90;;;;;;5198151;28;20025;-64
2022/08/22 00:17:31;;;;;;;;;;;15.80;99.90;;;;;;5214549;28;20037;-64
2022/08/22 00:20:19;;;;;;;4.65;3.63;;;15.80;99.90;;;;;;5216328;28;19901;-67
2022/08/22 00:22:56;;;;;;;3.70;3.40;;;15.80;99.90;;;;;;5198388;28;20033;-67
2022/08/22 00:25:34;;;;;;;4.53;3.88;;;15.70;99.90;;;;;;5197964;28;20025;-62
2022/08/22 00:28:12;;;;;;;5.10;4.20;;;15.70;99.90;;;;;;5215388;28;20029;-63
2022/08/22 00:30:51;;;;;;;4.05;3.63;;;15.70;99.90;;;;;;5215073;28;20322;-68
2022/08/22 00:33:31;;;;;;;3.85;3.42;;;15.70;99.90;;;;;;5213293;28;20025;-65
2022/08/22 00:36:22;;;;;;;3.90;3.50;;;15.70;99.90;;;;;;5219602;28;20294;-64
2022/08/22 00:39:32;;;;;;;8.30;4.30;;;15.70;99.90;;;;;;5215606;28;20021;-65
2022/08/22 00:42:33;;;;;;;4.57;3.50;;;15.60;99.90;;;;;;5214927;28;20032;-63
2022/08/22 00:45:34;;;;;;;5.28;3.50;;;15.70;99.90;;;;;;5231070;28;20024;-65
2022/08/22 00:48:34;;;;;;;4.47;3.58;;;15.70;99.90;;;;;;5236755;28;20035;-68
2022/08/22 00:51:26;;;;;;;4.05;3.65;;;15.70;99.90;;;;;;5203962;28;20241;-65
2022/08/22 00:54:35;;;;;;;3.88;3.53;;;15.60;99.90;;;;;;5216297;28;20340;-63
2022/08/22 00:57:18;;;;;;;4.25;3.47;;;15.60;99.90;;;;;;5197439;28;20275;-64
2022/08/22 01:00:24;;;;;;;4.07;3.53;;;15.60;99.90;;;;;;5185056;28;20317;-66
2022/08/22 01:03:27;;;;;;;4.47;3.95;;;15.70;99.90;;;;;;5228873;28;20017;-63
2022/08/22 01:06:04;;;;;;;5.13;4.03;;;15.60;99.90;;;;;;5189695;28;20279;-63
2022/08/22 01:08:52;;;;;;;4.43;3.65;;;15.60;99.90;;;;;;5214427;28;20392;-65
2022/08/22 01:11:29;;;;;;;5.57;3.20;;;15.50;99.90;;;;;;5214961;28;20027;-65
2022/08/22 01:14:35;;;;;;;5.15;3.55;;;15.50;99.90;;;;;;5199809;28;20229;-63
2022/08/22 01:17:31;;;;;;;4.20;3.38;;;15.50;99.90;;;;;;5202432;28;20445;-63
2022/08/22 01:20:38;;;;;;;4.32;3.70;;;15.50;99.90;;;;;;5219403;28;20194;-64
2022/08/22 01:23:17;;;;;;;5.95;4.15;;;15.50;99.90;;;;;;5220099;28;20021;-66
2022/08/22 01:26:22;;;;;;;5.15;3.60;;;15.40;99.90;;;;;;5217989;28;20205;-64
2022/08/22 01:29:30;;;;;;;5.45;3.40;;;15.50;99.90;;;;;;5219823;28;20368;-64
2022/08/22 01:32:44;;;;;;;5.95;3.50;;;15.40;99.90;;;;;;5227713;28;20043;-64
2022/08/22 01:35:34;;;;;;;4.45;3.78;;;15.40;99.90;;;;;;5229053;28;20020;-67
2022/08/22 01:38:21;;;;;;;6.00;3.85;;;15.40;99.90;;;;;;5219290;28;20028;-64
2022/08/22 01:41:16;;;;;;;4.20;3.63;;;15.40;99.90;;;;;;5216089;28;20036;-66
2022/08/22 01:44:05;;;;;;;4.85;3.50;;;15.40;99.90;;;;;;5187020;28;20029;-64
2022/08/22 01:46:49;;;;;;;8.45;3.78;;;15.40;99.90;;;;;;5195807;28;20035;-63
2022/08/22 01:49:42;;;;;;;4.63;4.18;;;15.40;99.90;;;;;;5219110;28;20478;-64
2022/08/22 01:52:27;;;;;;;5.97;3.58;;;15.40;99.90;;;;;;5200062;28;20025;-64
2022/08/22 01:55:08;;;;;;;3.83;3.42;;;15.40;99.90;;;;;;5196082;28;20025;-63
2022/08/22 01:57:52;;;;;;;4.43;3.88;;;15.40;99.90;;;;;;5219715;28;20025;-65
2022/08/22 02:00:29;;;;;;;3.08;2.88;;;15.40;99.90;;;;;;5227076;28;20024;-63
2022/08/22 02:03:34;;;;;;;3.03;2.75;;;15.40;99.90;;;;;;5219664;28;20215;-64
2022/08/22 02:06:15;;;;;;;5.20;3.27;;;15.30;99.90;;;;;;5189972;28;20071;-63
2022/08/22 02:09:06;;;;;;;2.65;2.45;;;15.30;99.90;;;;;;5200722;28;20035;-68
2022/08/22 02:11:46;;;;;;;2.95;2.13;;;15.30;99.90;;;;;;5217239;28;20059;-66
2022/08/22 02:14:21;;;;;;;3.35;2.92;;;15.30;99.90;;;;;;5218531;28;20055;-63
2022/08/22 02:17:20;;;;;;;2.83;2.50;;;15.30;99.90;;;;;;5198487;28;20031;-63
2022/08/22 02:20:05;;;;;;;2.35;2.10;;;15.30;99.90;;;;;;5217515;28;20031;-64
2022/08/22 02:23:07;;;;;;;3.53;2.65;;;15.20;99.90;;;;;;5199668;28;20024;-61
2022/08/22 02:26:06;;;;;;;2.78;2.58;;;15.20;99.90;;;;;;5217887;28;20028;-64
2022/08/22 02:28:48;;;;;;;2.25;2.05;;;15.30;99.90;;;;;;5221385;28;20017;-63
2022/08/22 02:32:13;;;;;;;2.53;2.30;;;15.30;99.90;;;;;;5222466;28;20027;-65
2022/08/22 02:35:06;;;;;;;3.00;2.70;;;15.30;99.90;;;;;;5159169;28;20148;-63
2022/08/22 02:38:02;;;;;;;2.78;2.58;;;15.30;99.90;;;;;;5173422;28;20033;-64
2022/08/22 02:41:12;;;;;;;3.00;2.63;;;15.30;99.90;;;;;;5147045;28;20335;-68
2022/08/22 02:43:55;;;;;;;3.47;2.53;;;15.30;99.90;;;;;;5168912;28;20042;-62
2022/08/22 02:46:48;;;;;;;4.45;3.17;;;15.30;99.90;;;;;;5173952;28;20030;-61
2022/08/22 02:49:19;;;;;;;3.38;2.15;;;15.30;99.90;;;;;;5173444;28;20032;-63
2022/08/22 02:51:56;;;;;;;3.47;2.60;;;15.30;99.90;;;;;;5176053;28;20282;-64
2022/08/22 02:54:40;;;;;;;2.50;2.30;;;15.30;99.90;;;;;;5174483;28;20033;-62
2022/08/22 02:57:43;;;;;;;2.85;2.65;;;15.20;99.90;;;;;;5177497;28;20161;-63
2022/08/22 03:00:48;;;;;;;2.90;2.60;;;15.20;99.90;;;;;;5166720;28;20033;-64
2022/08/22 03:03:27;;;;;;;3.10;2.80;;;15.20;99.90;;;;;;5175858;28;20191;-62
2022/08/22 03:06:04;;;;;;;2.63;2.20;;;15.20;99.90;;;;;;5189160;28;20435;-63
2022/08/22 03:09:01;;;;;;;2.65;2.35;;;15.20;99.90;;;;;;5198223;28;20025;-64
2022/08/22 03:11:38;;;;;;;3.35;2.85;;;15.20;99.90;;;;;;5212811;28;20241;-65
2022/08/22 03:14:23;;;;;;;3.50;3.20;;;15.20;99.90;;;;;;5217493;28;20037;-63
2022/08/22 03:17:01;;;;;;;2.55;2.28;;;15.20;99.90;;;;;;5220547;28;20020;-62
2022/08/22 03:19:53;;;;;;;3.08;2.45;;;15.30;99.90;;;;;;5217587;28;20209;-62
2022/08/22 03:22:58;;;;;;;3.28;2.60;;;15.30;99.90;;;;;;5200135;28;20223;-62
2022/08/22 03:25:41;;;;;;;4.22;2.50;;;15.30;99.90;;;;;;5215394;28;20017;-61
2022/08/22 03:28:23;;;;;;;3.22;2.92;;;15.20;99.90;;;;;;5228125;28;20028;-61
2022/08/22 03:31:08;;;;;;;3.08;2.60;;;15.20;99.90;;;;;;5239498;28;20271;-62
2022/08/22 03:34:05;;;;;;;2.40;2.20;;;15.20;99.90;;;;;;5231270;28;20171;-62
2022/08/22 03:36:47;;;;;;;2.60;2.40;;;15.20;99.90;;;;;;5213519;28;20191;-62
2022/08/22 03:39:51;;;;;;;2.40;2.20;;;15.20;99.90;;;;;;5215828;28;20031;-62
2022/08/22 03:42:44;;;;;;;3.20;2.67;;;15.20;99.90;;;;;;5188503;28;20339;-61
2022/08/22 03:45:56;;;;;;;3.28;2.42;;;15.10;99.90;;;;;;5216878;28;20033;-63
2022/08/22 03:48:48;;;;;;;2.92;2.58;;;15.10;99.90;;;;;;5216060;28;20031;-63
2022/08/22 03:51:41;;;;;;;2.88;2.67;;;15.20;99.90;;;;;;5216399;28;20310;-63
2022/08/22 03:54:18;;;;;;;2.53;2.22;;;15.20;99.90;;;;;;5232583;28;20016;-61
2022/08/22 03:57:23;;;;;;;5.18;2.60;;;15.20;99.90;;;;;;5203924;28;20323;-61
2022/08/22 04:00:10;;;;;;;2.75;2.55;;;15.20;99.90;;;;;;5199988;28;20013;-62
2022/08/22 04:03:13;;;;;;;4.03;2.83;;;15.20;99.90;;;;;;5217766;28;20356;-61
2022/08/22 04:06:05;;;;;;;2.70;2.50;;;15.20;99.90;;;;;;5206342;28;20207;-61
2022/08/22 04:09:14;;;;;;;2.58;2.38;;;15.20;99.90;;;;;;5216863;28;20029;-62
2022/08/22 04:12:38;;;;;;;2.67;2.45;;;15.20;99.90;;;;;;5200288;28;20029;-62
2022/08/22 04:15:38;;;;;;;3.95;2.30;;;15.20;99.90;;;;;;5109536;28;20046;-61
2022/08/22 04:18:28;;;;;;;3.63;2.70;;;15.20;99.90;;;;;;5134055;28;20239;-62
2022/08/22 04:21:15;;;;;;;2.50;2.30;;;15.10;99.90;;;;;;5126221;28;20084;-62
2022/08/22 04:23:49;;;;;;;2.65;2.45;;;15.20;99.90;;;;;;5138907;28;20038;-61
2022/08/22 04:27:04;;;;;;;2.55;2.10;;;15.10;99.90;;;;;;5124460;28;20044;-62
2022/08/22 04:29:48;;;;;;;3.10;2.45;;;15.10;99.90;;;;;;5133185;28;20026;-61
2022/08/22 04:32:38;;;;;;;;;;;15.10;99.90;;;;;;5119452;28;20041;-62
2022/08/22 04:35:40;;;;;;;4.55;1.80;;;15.00;99.90;;;;;;5127217;28;20214;-61
2022/08/22 04:38:54;;;;;;;1.80;1.70;;;15.00;99.90;;;;;;5153886;28;20052;-61
2022/08/22 04:41:58;;;;;;;1.73;1.63;;;15.00;99.90;;;;;;5146242;28;20029;-62
2022/08/22 04:44:52;;;;;;;2.77;1.97;;;15.00;99.90;;;;;;5134810;28;20515;-64
2022/08/22 04:47:36;;;;;;;1.42;1.33;;;14.90;99.90;;;;;;5117311;28;20031;-63
2022/08/22 04:50:27;;;;;;;1.92;1.80;;;14.90;99.90;;;;;;5147236;28;20218;-62
2022/08/22 04:53:18;;;;;;;1.55;1.20;;;14.90;99.90;;;;;;5230482;28;20226;-62
2022/08/22 04:56:02;;;;;;;1.58;1.30;;;14.90;99.90;;;;;;5222015;28;20348;-61
2022/08/22 04:58:39;;;;;;;1.00;1.00;;;14.90;99.90;;;;;;5202604;28;20033;-62
2022/08/22 05:01:27;;;;;;;1.60;1.50;;;14.90;99.90;;;;;;5185395;28;20025;-62
2022/08/22 05:04:04;;;;;;;2.78;2.05;;;14.80;99.90;;;;;;5219436;28;20025;-61
2022/08/22 05:06:48;;;;;;;1.75;1.50;;;14.80;99.90;;;;;;5189926;28;20042;-62
2022/08/22 05:09:28;;;;;;;2.42;1.95;;;14.80;99.90;;;;;;5199252;28;20029;-62
2022/08/22 05:12:06;;;;;;;1.38;1.27;;;14.80;99.90;;;;;;5181399;28;20033;-63
2022/08/22 05:15:04;;;;;;;1.35;1.25;;;14.80;99.90;;;;;;5181693;28;20423;-64
2022/08/22 05:17:37;;;;;;;2.00;1.65;;;14.80;99.90;;;;;;5218852;28;20021;-62
2022/08/22 05:20:13;;;;;;;2.00;1.42;;;14.80;99.90;;;;;;5217936;28;20032;-61
2022/08/22 05:22:50;;;;;;;2.47;1.60;;;14.70;99.90;;;;;;5199749;28;20032;-61
2022/08/22 05:25:33;;;;;;;5.55;1.40;;;14.70;99.90;;;;;;5201621;28;20032;-61
2022/08/22 05:28:20;;;;;;;1.70;1.58;;;14.70;99.90;;;;;;5220696;28;20256;-63
2022/08/22 05:30:54;;;;;;;1.65;1.45;;;14.70;99.90;;;;;;5185025;28;20250;-62
2022/08/22 05:33:28;;;;;;;;;;;14.80;99.90;;;;;;5202279;28;20028;-62
2022/08/22 05:36:28;;;;;;;1.20;1.10;;;14.70;99.90;;;;;;5216028;28;19911;-63
2022/08/22 05:39:08;;;;;;;2.00;1.73;;;14.80;99.90;;;;;;5232868;28;20241;-63
2022/08/22 05:41:43;;;;;;;1.25;1.15;;;14.80;99.90;;;;;;5201454;28;20249;-64
2022/08/22 05:44:36;;;;;;;2.47;1.50;;;14.80;99.90;;;;;;5221884;28;20302;-64
2022/08/22 05:47:38;;;;;;;1.30;1.17;;;14.80;99.90;;;;;;5187895;28;20039;-63
2022/08/22 05:50:12;;;;;;;1.90;1.80;;;14.80;99.90;;;;;;5202788;28;20312;-64
2022/08/22 05:52:50;;;;;;;2.10;1.45;;;14.80;99.90;;;;;;5201233;28;20036;-65
2022/08/22 05:55:21;;;;;;;1.50;1.40;;;14.90;99.90;;;;;;5201897;28;20310;-66
2022/08/22 05:58:33;;;;;;;1.77;1.67;;;14.90;99.90;;;;;;5210285;28;20036;-63
2022/08/22 06:01:19;;;;;;;1.10;1.05;;;14.90;99.90;;;;;;5203681;28;20048;-66
2022/08/22 06:04:05;;;;;;;2.17;1.58;;;14.90;99.90;;;;;;5180209;28;20033;-65
2022/08/22 06:06:49;;;;;;;2.58;1.83;;;14.90;99.90;;;;;;5154533;28;20052;-68
2022/08/22 06:09:46;;;;;;;1.52;1.42;;;14.80;99.90;;;;;;5198700;28;20112;-64
2022/08/22 06:12:31;;;;;;;2.42;1.35;;;14.80;99.90;;;;;;5181082;28;20041;-63
2022/08/22 06:15:19;;;;;;;1.63;1.50;;;14.80;99.90;;;;;;5231170;28;20066;-63
2022/08/22 06:18:09;;;;;;;1.40;1.08;;;14.80;99.90;;;;;;5233926;28;20024;-61
2022/08/22 06:20:50;;;;;;;2.30;1.63;;;14.80;99.90;;;;;;5201245;28;20029;-64
2022/08/22 06:23:27;;;;;;;2.63;1.25;;;14.80;99.90;;;;;;5218466;28;20021;-63
2022/08/22 06:26:00;;;;;;;2.05;1.85;;;14.80;99.90;;;;;;5233286;28;20034;-63
2022/08/22 06:28:40;;;;;;;1.90;1.67;;;14.80;99.90;;;;;;5240325;28;20024;-63
2022/08/22 06:31:29;;;;;;;2.33;1.60;;;14.80;99.90;;;;;;5224230;28;20021;-62
2022/08/22 06:34:14;;;;;;;3.50;2.20;;;14.80;99.90;;;;;;5200929;28;20029;-62
2022/08/22 06:36:53;;;;;;;2.92;1.95;;;14.80;99.90;;;;;;5223507;28;20198;-64
2022/08/22 06:39:33;;;;;;;1.90;1.80;;;14.80;99.90;;;;;;5203940;28;20039;-64
2022/08/22 06:42:40;;;;;;;2.38;1.88;;;14.90;99.90;;;;;;5220234;28;20033;-62
2022/08/22 06:45:33;;;;;;;2.40;2.20;;;14.90;99.90;;;;;;5200404;28;20584;-65
2022/08/22 06:48:07;;;;;;;2.25;1.80;;;15.10;99.90;;;;;;5222924;28;20028;-65
2022/08/22 06:50:47;;;;;;;3.58;2.22;;;15.10;99.90;;;;;;5235641;28;20021;-65
2022/08/22 06:53:56;;;;;;;2.13;1.92;;;15.20;99.90;;;;;;5200466;28;20527;-65
2022/08/22 06:56:41;;;;;;;1.85;1.75;;;15.20;99.90;;;;;;5207680;28;20039;-65
2022/08/22 06:59:16;;;;;;;2.38;2.17;;;15.30;99.90;;;;;;5196106;28;20025;-62
2022/08/22 07:02:02;;;;;;;2.38;2.13;;;15.40;99.90;;;;;;5187842;28;20031;-63
2022/08/22 07:04:36;;;;;;;4.82;2.03;;;15.40;99.90;;;;;;5202900;28;20267;-62
2022/08/22 07:07:11;;;;;;;2.60;2.25;;;15.40;99.90;;;;;;5215924;28;20043;-62
2022/08/22 07:09:49;;;;;;;2.67;2.40;;;15.40;99.90;;;;;;5239331;28;20335;-65
2022/08/22 07:12:29;;;;;;;5.25;2.10;;;15.40;99.90;;;;;;5235829;28;20335;-66
2022/08/22 07:15:19;;;;;;;1.67;1.48;;;15.40;99.90;;;;;;5200650;28;20032;-62
2022/08/22 07:18:03;;;;;;;2.45;2.22;;;15.40;99.90;;;;;;5206755;28;20031;-65
2022/08/22 07:20:44;;;;;;;2.63;2.40;;;15.40;99.90;;;;;;5234173;28;20294;-62
2022/08/22 07:23:27;;;;;;;1.80;1.70;;;15.30;99.90;;;;;;5200623;28;20134;-63
2022/08/22 07:26:23;;;;;;;3.78;2.08;;;15.30;99.90;;;;;;5230254;28;20175;-62
2022/08/22 07:29:12;;;;;;;5.05;2.25;;;15.30;99.90;;;;;;5220298;28;20085;-64
2022/08/22 07:31:52;;;;;;;3.00;2.47;;;15.30;99.90;;;;;;5232141;28;20233;-65
2022/08/22 07:35:03;;;;;;;3.67;2.28;;;15.30;99.90;;;;;;5227158;28;20294;-62
2022/08/22 07:38:04;;;;;;;2.58;2.30;;;15.40;99.90;;;;;;5209970;28;20032;-65
2022/08/22 07:41:03;;;;;;;2.72;2.30;;;15.50;99.90;;;;;;5228323;28;20013;-66
2022/08/22 07:43:40;;;;;;;3.17;2.33;;;15.60;99.90;;;;;;5229634;28;20024;-62
2022/08/22 07:46:23;;;;;;;2.40;1.98;;;15.80;99.90;;;;;;5207587;28;20021;-63
2022/08/22 07:49:00;;;;;;;2.25;2.05;;;15.80;99.90;;;;;;5220403;28;20206;-63
2022/08/22 07:51:45;;;;;;;4.32;1.98;;;15.90;99.90;;;;;;5225539;28;20032;-62
2022/08/22 07:54:32;;;;;;;2.13;1.92;;;15.90;99.90;;;;;;5226120;28;20025;-63
2022/08/22 07:57:11;;;;;;;1.77;1.63;;;15.90;99.90;;;;;;5220425;28;20039;-63
2022/08/22 07:59:51;;;;;;;1.70;1.60;;;16.00;99.90;;;;;;5217439;28;20031;-63
2022/08/22 08:02:24;;;;;;;1.90;1.70;;;16.00;99.90;;;;;;5212219;28;20032;-64
2022/08/22 08:05:04;;;;;;;1.80;1.70;;;16.10;99.90;;;;;;5192522;28;20049;-63
2022/08/22 08:07:45;;;;;;;1.50;1.40;;;16.20;99.90;;;;;;5199681;28;20357;-62
2022/08/22 08:10:24;;;;;;;1.73;1.63;;;16.30;99.90;;;;;;5234618;28;20019;-61
2022/08/22 08:13:06;;;;;;;1.55;1.45;;;16.50;99.90;;;;;;5211533;28;20294;-64
2022/08/22 08:15:44;;;;;;;1.58;1.48;;;16.80;99.90;;;;;;5225937;28;20027;-64
2022/08/22 08:18:24;;;;;;;1.50;1.40;;;16.90;99.90;;;;;;5219648;28;20017;-64
2022/08/22 08:21:05;;;;;;;1.70;1.60;;;17.10;99.90;;;;;;5234755;28;20047;-63
2022/08/22 08:23:44;;;;;;;2.05;1.50;;;17.20;99.90;;;;;;5209182;28;20025;-62
2022/08/22 08:26:27;;;;;;;1.80;1.70;;;17.10;99.90;;;;;;5199679;28;20035;-64
2022/08/22 08:29:01;;;;;;;1.60;1.50;;;17.10;99.90;;;;;;5217401;28;20027;-64
2022/08/22 08:31:37;;;;;;;1.45;1.35;;;17.10;99.90;;;;;;5216819;28;20031;-64
2022/08/22 08:34:22;;;;;;;1.50;1.40;;;17.10;99.90;;;;;;5221072;28;20043;-62
2022/08/22 08:37:01;;;;;;;1.75;1.65;;;16.90;99.90;;;;;;5216369;28;20024;-63
2022/08/22 08:39:37;;;;;;;1.27;1.17;;;16.80;99.90;;;;;;5217118;28;20017;-62
2022/08/22 08:42:21;;;;;;;1.30;1.20;;;16.70;99.90;;;;;;5207518;28;20008;-62
2022/08/22 08:45:21;;;;;;;1.40;1.30;;;16.50;99.90;;;;;;5210226;28;20225;-63
2022/08/22 08:47:55;;;;;;;1.75;1.42;;;16.30;99.90;;;;;;5198555;28;20037;-62
2022/08/22 08:50:43;;;;;;;2.00;1.38;;;16.40;99.90;;;;;;5182118;28;20299;-63
2022/08/22 08:53:28;;;;;;;1.60;1.50;;;16.30;99.90;;;;;;5198412;28;20237;-62
2022/08/22 08:56:48;;;;;;;2.20;2.00;;;16.40;99.90;;;;;;5195649;28;20302;-63
2022/08/22 08:59:25;;;;;;;1.60;1.50;;;16.30;99.90;;;;;;5096381;29;20027;-63
2022/08/22 09:02:43;;;;;;;1.52;1.42;;;16.30;99.90;;;;;;5128939;28;20030;-62
2022/08/22 09:06:03;;;;;;;1.27;1.17;;;16.30;99.90;;;;;;5097891;28;20291;-61
2022/08/22 09:08:58;;;;;;;1.25;1.15;;;16.40;99.90;;;;;;5101169;29;20236;-61
2022/08/22 09:11:47;;;;;;;;;;;16.50;99.90;;;;;;5102931;29;20008;-63
2022/08/22 09:14:30;;;;;;;1.52;1.42;;;16.60;99.90;;;;;;5091513;29;19911;-64
2022/08/22 09:17:23;;;;;;;1.25;1.02;;;16.80;99.90;;;;;;5060400;29;20036;-63
2022/08/22 09:20:22;;;;;;;1.45;1.35;;;16.80;99.90;;;;;;5092419;29;20035;-63
2022/08/22 09:23:02;;;;;;;1.70;1.60;;;16.90;99.90;;;;;;5069140;29;20036;-65
2022/08/22 09:26:01;;;;;;;1.33;1.23;;;16.80;99.90;;;;;;5076122;29;20035;-63
2022/08/22 09:29:16;;;;;;;1.23;1.13;;;16.60;99.90;;;;;;5092735;29;20308;-63
2022/08/22 09:31:58;;;;;;;1.55;1.45;;;16.60;99.90;;;;;;5071873;29;20042;-62
2022/08/22 09:34:40;;;;;;;1.77;1.00;;;16.60;99.90;;;;;;5155563;28;20335;-62
2022/08/22 09:37:28;;;;;;;1.35;1.08;;;16.50;99.90;;;;;;5153520;28;20040;-63
2022/08/22 09:40:03;;;;;;;0.98;0.98;;;16.70;99.90;;;;;;5198011;28;20309;-61
2022/08/22 09:43:02;;;;;;;0.98;0.98;;;16.70;99.90;;;;;;5224298;28;20029;-61
2022/08/22 09:45:48;;;;;;;1.10;1.05;;;16.80;99.90;;;;;;5218850;28;20211;-62
2022/08/22 09:48:33;;;;;;;0.98;0.98;;;17.00;99.90;;;;;;5199716;28;20041;-61
2022/08/22 09:51:18;;;;;;;0.80;0.80;;;16.80;99.90;;;;;;5219149;28;20020;-62
2022/08/22 09:54:03;;;;;;;1.02;0.95;;;16.80;99.90;;;;;;5216577;28;20083;-62
2022/08/22 09:57:01;;;;;;;0.85;0.80;;;16.80;99.90;;;;;;5213497;28;20027;-62
2022/08/22 09:59:58;;;;;;;0.90;0.80;;;17.00;99.90;;;;;;5179627;28;20032;-64
2022/08/22 10:02:41;;;;;;;0.95;0.93;;;16.80;99.90;;;;;;5203092;28;20032;-63
2022/08/22 10:05:42;;;;;;;1.08;1.00;;;16.70;99.90;;;;;;5218613;28;20037;-63
2022/08/22 10:08:31;;;;;;;0.75;0.75;;;16.60;99.90;;;;;;5204333;28;20043;-61
2022/08/22 10:11:18;;;;;;;1.00;1.00;;;16.40;99.90;;;;;;5224854;28;20025;-61
2022/08/22 10:13:54;;;;;;;1.20;1.15;;;16.30;99.90;;;;;;5215598;28;20029;-62
2022/08/22 10:16:31;;;;;;;1.58;1.20;;;16.30;99.90;;;;;;5218859;28;20017;-63
2022/08/22 10:19:24;;;;;;;1.13;1.02;;;16.30;99.90;;;;;;5222003;28;20311;-62
2022/08/22 10:22:32;;;;;;;1.15;1.15;;;16.30;99.90;;;;;;5200906;28;20013;-62
2022/08/22 10:25:18;;;;;;;1.60;1.05;;;16.40;99.90;;;;;;5198287;28;20132;-63
2022/08/22 10:28:13;;;;;;;1.10;1.00;;;16.40;99.90;;;;;;5213965;28;20255;-62
2022/08/22 10:31:20;;;;;;;1.23;1.20;;;16.40;99.90;;;;;;5188762;28;20029;-63
2022/08/22 10:34:15;;;;;;;1.38;1.27;;;16.20;99.90;;;;;;5206170;28;20029;-64
2022/08/22 10:37:00;;;;;;;1.25;1.20;;;16.30;99.90;;;;;;5198638;28;20070;-63
2022/08/22 10:39:56;;;;;;;1.13;1.02;;;16.30;99.90;;;;;;5229582;28;20025;-63
2022/08/22 10:42:43;;;;;;;1.40;1.25;;;16.30;99.90;;;;;;5218819;28;20025;-64
2022/08/22 10:45:26;;;;;;;1.20;1.10;;;16.30;99.90;;;;;;5219722;28;20032;-64
2022/08/22 10:47:58;;;;;;;1.00;1.00;;;16.30;99.90;;;;;;5242197;28;20347;-62
2022/08/22 10:50:46;;;;;;;1.23;1.13;;;16.40;99.90;;;;;;5246850;28;20232;-63
2022/08/22 10:53:33;;;;;;;1.15;1.13;;;16.50;99.90;;;;;;5227544;28;20039;-63
2022/08/22 10:56:13;;;;;;;1.00;1.00;;;16.40;99.90;;;;;;5206632;28;20454;-64
2022/08/22 10:59:19;;;;;;;1.05;0.90;;;16.30;99.90;;;;;;5221190;28;20047;-64
2022/08/22 11:02:14;;;;;;;1.50;1.40;;;16.30;99.90;;;;;;5200744;28;20029;-63
2022/08/22 11:05:14;;;;;;;0.75;0.75;;;16.10;99.90;;;;;;5210772;28;20059;-62
2022/08/22 11:08:05;;;;;;;0.90;0.90;;;16.10;99.90;;;;;;5227174;28;20039;-63
2022/08/22 11:10:48;;;;;;;2.40;1.35;;;16.00;99.90;;;;;;5195651;28;20033;-64
2022/08/22 11:13:26;;;;;;;1.17;1.15;;;16.00;99.90;;;;;;5184061;28;20416;-64
2022/08/22 11:16:11;;;;;;;0.95;0.95;;;15.90;99.90;;;;;;5216174;28;20043;-64
2022/08/22 11:18:59;;;;;;;0.80;0.80;;;16.00;99.90;;;;;;5238636;28;20339;-64
2022/08/22 11:21:47;;;;;;;0.80;0.80;;;16.10;99.90;;;;;;5220473;28;20028;-63
2022/08/22 11:24:31;;;;;;;0.80;0.80;;;16.00;99.90;;;;;;5218059;28;20038;-62
2022/08/22 11:27:13;;;;;;;0.50;0.50;;;16.00;99.90;;;;;;5238061;28;20043;-62
2022/08/22 11:30:10;;;;;;;0.60;0.60;;;16.10;99.90;;;;;;5217779;28;20031;-64
2022/08/22 11:33:10;;;;;;;0.70;0.70;;;16.20;99.90;;;;;;5211620;28;20207;-62
2022/08/22 11:35:56;;;;;;;0.60;0.60;;;16.20;99.90;;;;;;5217303;28;20247;-63
2022/08/22 11:38:42;;;;;;;0.65;0.65;;;16.10;99.90;;;;;;5215400;28;20037;-62
2022/08/22 11:41:36;;;;;;;0.80;0.80;;;16.10;99.90;;;;;;5182033;28;20037;-62
2022/08/22 11:44:32;;;;;;;0.80;0.80;;;16.30;99.90;;;;;;5213537;28;20028;-64
2022/08/22 11:47:12;;;;;;;0.65;0.65;;;16.20;99.90;;;;;;5219923;28;20058;-64
2022/08/22 11:49:49;;;;;;;0.77;0.77;;;16.10;99.90;;;;;;5237425;28;20016;-62
2022/08/22 11:52:57;;;;;;;0.70;0.70;;;16.00;99.90;;;;;;5202249;28;20043;-62
2022/08/22 11:55:50;;;;;;;1.00;1.00;;;15.90;99.90;;;;;;5196530;28;20306;-64
2022/08/22 11:58:32;;;;;;;0.68;0.68;;;15.80;99.90;;;;;;5202447;28;20020;-63
2022/08/22 12:01:10;;;;;;;0.77;0.77;;;15.80;99.90;;;;;;5216640;28;20345;-62
2022/08/22 12:03:54;;;;;;;1.10;1.00;;;15.80;99.90;;;;;;5217373;28;20355;-62
2022/08/22 12:06:28;;;;;;;1.13;1.02;;;15.90;99.90;;;;;;5213558;28;20059;-63
2022/08/22 12:09:19;;;;;;;0.90;0.90;;;16.20;99.90;;;;;;5199104;28;20399;-64
2022/08/22 12:11:55;;;;;;;0.90;0.90;;;16.40;99.90;;;;;;5214952;28;20212;-62
2022/08/22 12:14:54;;;;;;;0.80;0.80;;;16.60;99.90;;;;;;5199154;28;20327;-65
2022/08/22 12:18:12;;;;;;;0.60;0.60;;;16.80;99.90;;;;;;5200470;28;20372;-62
2022/08/22 12:21:08;;;;;;;0.70;0.70;;;17.10;99.90;;;;;;5215997;28;20024;-63
2022/08/22 12:24:16;;;;;;;0.98;0.98;;;17.40;99.90;;;;;;5217181;28;20017;-62
2022/08/22 12:27:15;;;;;;;0.85;0.85;;;17.50;99.90;;;;;;5215786;28;20016;-64
2022/08/22 12:29:52;;;;;;;0.80;0.80;;;17.60;99.90;;;;;;5195632;28;20331;-62
2022/08/22 12:32:43;;;;;;;0.60;0.60;;;17.50;99.90;;;;;;5212739;28;20326;-63
2022/08/22 12:35:35;;;;;;;0.55;0.55;;;17.30;99.90;;;;;;5203503;28;20020;-62
2022/08/22 12:38:22;;;;;;;0.55;0.55;;;16.90;99.90;;;;;;5196153;28;20030;-62
2022/08/22 12:41:06;;;;;;;0.60;0.60;;;16.80;99.90;;;;;;5195817;28;20031;-62
2022/08/22 12:43:58;;;;;;;0.80;0.80;;;17.20;99.90;;;;;;5203409;28;20023;-61
2022/08/22 12:46:50;;;;;;;0.70;0.70;;;17.30;99.90;;;;;;5236751;28;20024;-62
2022/08/22 12:49:57;;;;;;;0.60;0.60;;;17.40;99.90;;;;;;5202471;28;20029;-63
2022/08/22 12:52:57;;;;;;;0.70;0.70;;;17.10;99.90;;;;;;5235844;28;20091;-63
2022/08/22 12:55:49;;;;;;;3.17;0.90;;;16.80;99.90;;;;;;5236225;28;20031;-63
2022/08/22 12:58:29;;;;;;;0.70;0.70;;;16.60;99.90;;;;;;5218830;28;20123;-64
2022/08/22 13:01:08;;;;;;;0.73;0.73;;;16.40;99.90;;;;;;5214021;28;20016;-62
2022/08/22 13:03:52;;;;;;;0.80;0.80;;;16.30;99.90;;;;;;5206603;28;20047;-62
2022/08/22 13:06:49;;;;;;;1.40;1.30;;;16.20;99.90;;;;;;5203510;28;20067;-62
2022/08/22 13:09:26;;;;;;;1.30;1.20;;;16.10;99.90;;;;;;5209625;28;20301;-61
2022/08/22 13:12:18;;;;;;;1.33;1.23;;;16.00;99.90;;;;;;5221648;28;20318;-61
2022/08/22 13:14:55;;;;;;;1.42;1.33;;;15.90;99.90;;;;;;5184634;28;20032;-61
2022/08/22 13:17:27;;;;;;;1.40;1.30;;;15.90;99.90;;;;;;5240678;28;20293;-61
2022/08/22 13:20:07;;;;;;;1.55;1.42;;;15.90;99.90;;;;;;5247003;28;20227;-62
2022/08/22 13:22:42;;;;;;;1.67;1.55;;;16.00;99.90;;;;;;5216549;28;20024;-62
2022/08/22 13:25:24;;;;;;;1.42;1.33;;;16.20;99.90;;;;;;5240806;28;20027;-62
2022/08/22 13:27:59;;;;;;;2.05;1.85;;;16.20;99.90;;;;;;5208867;28;20028;-62
2022/08/22 13:30:41;;;;;;;1.63;1.52;;;16.20;99.90;;;;;;5230849;28;20024;-61
2022/08/22 13:33:46;;;;;;;1.60;1.50;;;16.30;99.90;;;;;;5221199;28;20253;-61
2022/08/22 13:36:20;;;;;;;1.30;1.20;;;16.40;99.90;;;;;;5178175;28;20025;-62
2022/08/22 13:38:57;;;;;;;1.50;1.33;;;16.50;99.90;;;;;;5163674;28;20222;-62
2022/08/22 13:41:34;;;;;;;2.35;1.33;;;16.50;99.90;;;;;;5198077;28;20682;-62
2022/08/22 13:44:06;;;;;;;1.13;1.10;;;16.40;99.90;;;;;;5160979;28;20032;-62
2022/08/22 13:46:51;;;;;;;2.55;0.95;;;16.50;99.90;;;;;;5141355;28;20227;-62
2022/08/22 13:49:45;;;;;;;1.10;0.93;;;16.50;99.90;;;;;;5156182;28;20048;-62
2022/08/22 13:52:37;;;;;;;1.50;1.40;;;16.70;99.90;;;;;;5171526;28;20033;-61
2022/08/22 13:55:41;;;;;;;1.58;1.20;;;16.70;99.90;;;;;;5159053;28;20033;-62
2022/08/22 13:58:24;;;;;;;1.20;1.10;;;16.80;99.90;;;;;;5161342;28;20030;-62
2022/08/22 14:01:17;;;;;;;1.50;1.40;;;16.90;99.90;;;;;;5182757;28;20026;-63
2022/08/22 14:03:59;;;;;;;1.52;1.42;;;17.00;99.90;;;;;;5143908;28;20227;-63
2022/08/22 14:06:47;;;;;;;1.27;1.17;;;17.10;99.90;;;;;;5128021;28;20483;-60
2022/08/22 14:09:29;;;;;;;1.05;1.05;;;17.40;99.90;;;;;;5156759;28;20027;-62
2022/08/22 14:12:17;;;;;;;1.15;0.85;;;17.70;99.90;;;;;;5169473;28;20037;-61
2022/08/22 14:14:55;;;;;;;1.10;1.10;;;17.70;99.90;;;;;;5203971;28;20135;-61
2022/08/22 14:17:39;;;;;;;1.42;1.05;;;17.90;99.90;;;;;;5221423;28;20298;-62
2022/08/22 14:20:19;;;;;;;0.90;0.90;;;17.90;99.90;;;;;;5226730;28;20191;-62
2022/08/22 14:23:03;;;;;;;0.90;0.90;;;17.80;99.90;;;;;;5189406;28;20032;-61
2022/08/22 14:25:41;;;;;;;1.02;1.00;;;17.80;99.90;;;;;;5222468;28;20038;-61
2022/08/22 14:28:31;;;;;;;2.15;1.10;;;17.70;99.90;;;;;;5228264;28;20032;-61
2022/08/22 14:31:07;;;;;;;0.90;0.90;;;17.50;99.90;;;;;;5184080;28;20329;-62
2022/08/22 14:33:54;;;;;;;1.60;1.00;;;17.60;99.90;;;;;;5216543;28;20039;-62
2022/08/22 14:36:48;;;;;;;1.10;1.10;;;17.70;99.90;;;;;;5217457;28;20126;-61